Time;durP1;ratioP1;P1;durP2;ratioP2;P2;SDS_P1;SDS_P2;PMS_P1;PMS_P2;Temp;Humidity;BMP_temperature;BMP_pressure;BME280_temperature;BME280_humidity;BME280_pressure;Samples;Min_cycle;Max_cycle;Signal;HPM_P1;HPM_P2
2023/10/22 00:01:13;;;;;;;2.73;1.13;;;;;;;-145.18;100.00;46642.81;5024757;28;20048;-66
2023/10/22 00:03:39;;;;;;;2.37;1.00;;;;;;;-145.18;100.00;46636.94;5024974;28;20025;-67
2023/10/22 00:06:04;;;;;;;4.10;1.10;;;;;;;-145.18;100.00;46638.91;5030486;28;20508;-67
2023/10/22 00:08:30;;;;;;;4.30;1.17;;;;;;;-145.18;100.00;46640.88;5031676;28;20123;-67
2023/10/22 00:10:55;;;;;;;2.60;1.13;;;;;;;-145.18;100.00;46648.69;5024762;28;20032;-67
2023/10/22 00:13:21;;;;;;;4.13;1.40;;;;;;;-145.18;100.00;46648.69;5020150;28;20121;-67
2023/10/22 00:15:46;;;;;;;7.03;1.43;;;;;;;-145.18;100.00;46650.63;5022856;28;20037;-67
2023/10/22 00:18:11;;;;;;;4.30;1.20;;;;;;;-145.18;100.00;46648.69;5012651;28;20034;-67
2023/10/22 00:20:38;;;;;;;3.73;1.23;;;;;;;-145.18;100.00;46650.63;5018724;28;20564;-67
2023/10/22 00:23:03;;;;;;;5.07;1.50;;;;;;;-145.18;100.00;46650.63;5025165;28;20025;-67
2023/10/22 00:25:29;;;;;;;3.87;1.13;;;;;;;-145.18;100.00;46654.53;5022444;28;20032;-67
2023/10/22 00:27:55;;;;;;;4.23;1.10;;;;;;;-145.18;100.00;46648.69;5024529;28;20025;-67
2023/10/22 00:30:20;;;;;;;2.47;1.23;;;;;;;-145.18;100.00;46652.59;5031318;28;20029;-67
2023/10/22 00:32:46;;;;;;;7.20;1.30;;;;;;;-145.18;100.00;46654.53;5025533;28;20075;-67
2023/10/22 00:35:12;;;;;;;3.70;1.30;;;;;;;-145.18;100.00;46650.63;5029367;28;20033;-67
2023/10/22 00:37:37;;;;;;;4.10;1.37;;;;;;;-145.18;100.00;46648.69;5024796;28;20034;-67
2023/10/22 00:40:03;;;;;;;6.07;1.67;;;;;;;-145.18;100.00;46656.50;5019803;28;20466;-67
2023/10/22 00:42:29;;;;;;;3.90;1.23;;;;;;;-145.18;100.00;46654.53;5021451;28;20035;-67
2023/10/22 00:44:54;;;;;;;10.70;1.90;;;;;;;-145.18;100.00;46652.59;5017283;28;20029;-67
2023/10/22 00:47:20;;;;;;;4.10;1.10;;;;;;;-145.18;100.00;46658.44;5027797;28;20497;-67
2023/10/22 00:49:45;;;;;;;4.97;1.20;;;;;;;-145.18;100.00;46660.41;5020735;28;20065;-67
2023/10/22 00:52:12;;;;;;;4.40;0.97;;;;;;;-145.18;100.00;46662.34;5021232;28;20022;-67
2023/10/22 00:54:37;;;;;;;2.40;1.23;;;;;;;-145.18;100.00;46656.50;5016948;28;20080;-66
2023/10/22 00:57:03;;;;;;;3.97;1.17;;;;;;;-145.18;100.00;46650.63;5021018;28;20490;-67
2023/10/22 00:59:29;;;;;;;3.27;1.00;;;;;;;-145.18;100.00;46652.59;5016723;28;20544;-67
2023/10/22 01:01:54;;;;;;;5.97;1.43;;;;;;;-145.18;100.00;46652.59;5021819;28;20033;-67
2023/10/22 01:04:20;;;;;;;3.63;1.20;;;;;;;-145.18;100.00;46652.59;5017303;28;20069;-66
2023/10/22 01:06:46;;;;;;;10.10;1.40;;;;;;;-145.18;100.00;46648.69;5022212;28;20401;-67
2023/10/22 01:09:11;;;;;;;2.33;0.90;;;;;;;-145.18;100.00;46646.72;5017499;28;20466;-66
2023/10/22 01:11:56;;;;;;;4.93;1.50;;;;;;;-145.18;100.00;46642.81;5027861;28;20474;-66
2023/10/22 01:14:21;;;;;;;3.20;1.17;;;;;;;-145.18;100.00;46644.78;5023726;28;20057;-66
2023/10/22 01:16:47;;;;;;;6.73;1.40;;;;;;;-145.18;100.00;46642.81;5018301;28;20438;-66
2023/10/22 01:19:12;;;;;;;3.07;1.00;;;;;;;-145.18;100.00;46636.94;5017241;28;20034;-66
2023/10/22 01:21:37;;;;;;;2.47;1.30;;;;;;;-145.18;100.00;46635.00;5022890;28;20421;-66
2023/10/22 01:24:03;;;;;;;1.03;0.90;;;;;;;-145.18;100.00;46660.41;5020630;28;20033;-66
2023/10/22 01:26:28;;;;;;;2.30;1.37;;;;;;;-145.18;100.00;46660.41;5022500;28;20029;-66
2023/10/22 01:28:54;;;;;;;4.50;1.40;;;;;;;-145.18;100.00;46660.41;5018223;28;20489;-66
2023/10/22 01:31:19;;;;;;;4.53;1.30;;;;;;;-145.18;100.00;46660.41;5029782;28;20068;-66
2023/10/22 01:33:45;;;;;;;7.67;1.73;;;;;;;-145.18;100.00;46660.41;5031302;28;20037;-66
2023/10/22 01:36:10;;;;;;;2.00;1.20;;;;;;;-145.18;100.00;46660.41;5023342;28;20110;-67
2023/10/22 01:38:36;;;;;;;2.67;1.30;;;;;;;-145.18;100.00;46660.41;5027648;28;20129;-66
2023/10/22 01:41:08;;;;;;;2.17;1.23;;;;;;;-145.18;100.00;46660.41;5033657;28;20111;-66
2023/10/22 01:43:34;;;;;;;7.87;1.30;;;;;;;-145.18;100.00;46660.41;5020279;28;20449;-66
2023/10/22 01:45:59;;;;;;;3.97;1.20;;;;;;;-145.18;100.00;46660.41;5027931;28;20033;-66
2023/10/22 01:48:24;;;;;;;2.37;1.10;;;;;;;-145.18;100.00;46660.41;5028594;28;20033;-66
2023/10/22 01:50:50;;;;;;;5.67;1.60;;;;;;;-145.18;100.00;46660.41;5024727;28;20442;-66
2023/10/22 01:53:15;;;;;;;3.00;1.20;;;;;;;-145.18;100.00;46660.41;5019596;28;20033;-66
2023/10/22 01:55:41;;;;;;;3.40;1.40;;;;;;;-145.18;100.00;46658.44;5022788;28;20029;-66
2023/10/22 01:58:06;;;;;;;2.47;1.60;;;;;;;-145.18;100.00;46660.41;5019786;28;20030;-66
2023/10/22 02:00:32;;;;;;;3.60;1.20;;;;;;;-145.18;100.00;46660.41;5033310;28;20056;-66
2023/10/22 02:02:57;;;;;;;3.03;1.07;;;;;;;-145.18;100.00;46660.41;5020202;28;20379;-66
2023/10/22 02:05:23;;;;;;;2.80;1.00;;;;;;;-145.18;100.00;46660.41;5022538;28;20029;-66
2023/10/22 02:07:48;;;;;;;2.33;0.97;;;;;;;-145.18;100.00;46660.41;5028335;28;20037;-66
2023/10/22 02:10:14;;;;;;;1.40;1.00;;;;;;;-145.18;100.00;46660.41;5024746;28;20160;-66
2023/10/22 02:12:39;;;;;;;1.47;0.83;;;;;;;-145.18;100.00;46660.41;5033113;28;20029;-66
2023/10/22 02:15:05;;;;;;;1.33;0.97;;;;;;;-145.18;100.00;46658.44;5029577;28;20414;-66
2023/10/22 02:17:30;;;;;;;1.60;1.50;;;;;;;-145.18;100.00;46660.41;5028436;28;20029;-66
2023/10/22 02:19:56;;;;;;;1.30;1.00;;;;;;;-145.18;100.00;46660.41;5007579;28;20149;-66
2023/10/22 02:22:21;;;;;;;4.97;1.70;;;;;;;-145.18;100.00;46660.41;5030003;28;20030;-66
2023/10/22 02:24:46;;;;;;;4.33;1.80;;;;;;;-145.18;100.00;46660.41;5028319;28;20379;-66
2023/10/22 02:27:12;;;;;;;5.37;1.70;;;;;;;-145.18;100.00;46658.44;5033324;28;20040;-66
2023/10/22 02:29:37;;;;;;;2.70;1.70;;;;;;;-145.18;100.00;46658.44;5016843;28;20059;-66
2023/10/22 02:32:06;;;;;;;7.10;2.57;;;;;;;-145.18;100.00;46660.41;5028148;28;20463;-66
2023/10/22 02:34:32;;;;;;;5.70;2.53;;;;;;;-145.18;100.00;46656.50;5034429;28;20029;-66
2023/10/22 02:36:57;;;;;;;12.67;3.27;;;;;;;-145.18;100.00;46658.44;5032955;28;20567;-66
2023/10/22 02:39:23;;;;;;;10.20;2.83;;;;;;;-145.18;100.00;46656.50;5026630;28;20057;-66
2023/10/22 02:41:48;;;;;;;6.80;2.57;;;;;;;-145.18;100.00;46660.41;5021395;28;20056;-66
2023/10/22 02:44:13;;;;;;;9.37;3.87;;;;;;;-145.18;100.00;46656.50;5019390;28;20077;-66
2023/10/22 02:46:39;;;;;;;5.93;3.20;;;;;;;-145.18;100.00;46656.50;5030486;28;20037;-66
2023/10/22 02:49:04;;;;;;;4.97;3.00;;;;;;;-145.18;100.00;46660.41;5024238;28;20100;-66
2023/10/22 02:51:29;;;;;;;7.20;3.10;;;;;;;-145.18;100.00;46660.41;5034016;28;20053;-66
2023/10/22 02:53:55;;;;;;;3.83;2.13;;;;;;;-145.18;100.00;46658.44;5024186;28;20026;-66
2023/10/22 02:56:22;;;;;;;6.83;2.23;;;;;;;-145.18;100.00;46656.50;5029395;28;20034;-66
2023/10/22 02:58:47;;;;;;;4.50;1.87;;;;;;;-145.18;100.00;46660.41;5016511;28;20034;-66
2023/10/22 03:01:15;;;;;;;3.83;1.87;;;;;;;-145.18;100.00;46658.44;5021506;28;20170;-66
2023/10/22 03:03:40;;;;;;;9.20;2.27;;;;;;;-145.18;100.00;46660.41;5034286;28;20025;-66
2023/10/22 03:06:07;;;;;;;6.63;2.50;;;;;;;-145.18;100.00;46660.41;5020166;28;20087;-66
2023/10/22 03:08:34;;;;;;;7.17;2.57;;;;;;;-145.18;100.00;46658.44;5024135;28;20316;-66
2023/10/22 03:11:00;;;;;;;8.10;2.53;;;;;;;-145.18;100.00;46660.41;5024100;28;20037;-66
2023/10/22 03:13:25;;;;;;;12.27;2.70;;;;;;;-145.18;100.00;46654.53;5020448;28;20141;-66
2023/10/22 03:15:50;;;;;;;6.63;1.90;;;;;;;-145.18;100.00;46658.44;5026724;28;20163;-66
2023/10/22 03:18:16;;;;;;;6.13;2.10;;;;;;;-145.18;100.00;46660.41;5033385;28;20030;-66
2023/10/22 03:20:42;;;;;;;6.03;2.27;;;;;;;-145.18;100.00;46656.50;5032543;28;20037;-66
2023/10/22 03:23:08;;;;;;;7.23;2.00;;;;;;;-145.18;100.00;46660.41;5032333;28;20028;-66
2023/10/22 03:25:34;;;;;;;7.13;1.93;;;;;;;-145.18;100.00;46660.41;5032829;28;20025;-66
2023/10/22 03:28:00;;;;;;;4.20;2.10;;;;;;;-145.18;100.00;46660.41;5031021;28;20108;-66
2023/10/22 03:30:26;;;;;;;4.40;1.80;;;;;;;-145.18;100.00;46660.41;5018065;28;20033;-66
2023/10/22 03:32:55;;;;;;;4.10;1.80;;;;;;;-145.18;100.00;46660.41;5032315;28;20108;-66
2023/10/22 03:35:21;;;;;;;5.53;2.83;;;;;;;-145.18;100.00;46660.41;5031012;28;20025;-66
2023/10/22 03:37:46;;;;;;;5.30;1.93;;;;;;;-145.18;100.00;46660.41;5030935;28;20056;-66
2023/10/22 03:40:12;;;;;;;4.90;1.80;;;;;;;-145.18;100.00;46660.41;5032985;28;20040;-66
2023/10/22 03:42:37;;;;;;;5.50;1.87;;;;;;;-145.18;100.00;46660.41;5032254;28;20569;-66
2023/10/22 03:45:03;;;;;;;6.33;2.53;;;;;;;-145.18;100.00;46660.41;5032289;28;20497;-66
2023/10/22 03:47:28;;;;;;;3.50;1.60;;;;;;;-145.18;100.00;46660.41;5031835;28;20049;-66
2023/10/22 03:49:54;;;;;;;3.43;2.03;;;;;;;-145.18;100.00;46660.41;5031207;28;20025;-67
2023/10/22 03:52:20;;;;;;;5.83;1.80;;;;;;;-145.18;100.00;46635.00;5032331;28;20113;-66
2023/10/22 03:54:45;;;;;;;6.30;2.20;;;;;;;-145.18;100.00;46636.94;5029939;28;20171;-67
2023/10/22 03:57:11;;;;;;;8.33;2.57;;;;;;;-145.18;100.00;46633.06;5029217;28;20152;-67
2023/10/22 03:59:36;;;;;;;5.50;2.60;;;;;;;-145.18;100.00;46636.94;5031248;28;20485;-67
2023/10/22 04:02:02;;;;;;;8.77;3.10;;;;;;;-145.18;100.00;46636.94;5022867;28;20168;-67
2023/10/22 04:04:27;;;;;;;7.93;3.73;;;;;;;-145.18;100.00;46635.00;5027237;28;20535;-67
2023/10/22 04:06:52;;;;;;;6.37;3.57;;;;;;;-145.18;100.00;46642.81;5016909;28;20049;-67
2023/10/22 04:09:18;;;;;;;7.00;3.40;;;;;;;-145.18;100.00;46638.91;5026498;28;20021;-67
2023/10/22 04:11:43;;;;;;;13.50;3.63;;;;;;;-145.18;100.00;46636.94;5031304;28;20087;-67
2023/10/22 04:14:09;;;;;;;8.37;3.87;;;;;;;-145.18;100.00;46642.81;5019519;28;20144;-67
2023/10/22 04:16:34;;;;;;;9.90;3.40;;;;;;;-145.18;100.00;46640.88;5020277;28;20037;-67
2023/10/22 04:18:59;;;;;;;9.67;3.30;;;;;;;-145.18;100.00;46636.94;5026121;28;20032;-66
2023/10/22 04:21:25;;;;;;;10.00;3.50;;;;;;;-145.18;100.00;46638.91;5025354;28;20494;-66
2023/10/22 04:23:50;;;;;;;10.53;4.37;;;;;;;-145.18;100.00;46636.94;5030421;28;20116;-66
2023/10/22 04:26:16;;;;;;;9.63;4.57;;;;;;;-145.18;100.00;46638.91;5024639;28;20046;-66
2023/10/22 04:28:42;;;;;;;8.30;4.97;;;;;;;-145.18;100.00;46636.94;5032137;28;20024;-66
2023/10/22 04:31:09;;;;;;;7.90;4.30;;;;;;;-145.18;100.00;46636.94;5023843;28;20026;-66
2023/10/22 04:33:36;;;;;;;12.03;5.17;;;;;;;-145.18;100.00;46635.00;5033775;28;20512;-66
2023/10/22 04:36:01;;;;;;;12.00;5.63;;;;;;;-145.18;100.00;46638.91;5033842;28;20045;-66
2023/10/22 04:38:27;;;;;;;9.70;4.97;;;;;;;-145.18;100.00;46638.91;5023623;28;20035;-66
2023/10/22 04:40:52;;;;;;;12.53;4.97;;;;;;;-145.18;100.00;46640.88;5035872;28;20037;-66
2023/10/22 04:43:18;;;;;;;11.17;6.13;;;;;;;-145.18;100.00;46635.00;5033003;28;20051;-66
2023/10/22 04:45:48;;;;;;;14.47;6.33;;;;;;;-145.18;100.00;46660.41;5021738;28;20025;-66
2023/10/22 04:48:13;;;;;;;14.37;6.97;;;;;;;-145.18;100.00;46638.91;5023548;28;20057;-66
2023/10/22 04:50:38;;;;;;;12.87;6.10;;;;;;;-145.18;100.00;46636.94;5026546;28;20064;-66
2023/10/22 04:53:04;;;;;;;18.07;6.80;;;;;;;-145.18;100.00;46636.94;5025595;28;20034;-66
2023/10/22 04:55:30;;;;;;;13.30;6.23;;;;;;;-145.18;100.00;46636.94;5019500;28;20503;-66
2023/10/22 04:57:55;;;;;;;14.63;7.10;;;;;;;-145.18;100.00;46636.94;5024905;28;20091;-66
2023/10/22 05:00:21;;;;;;;10.40;6.83;;;;;;;-145.18;100.00;46635.00;5015147;28;20029;-66
2023/10/22 05:02:46;;;;;;;13.47;7.70;;;;;;;-145.18;100.00;46636.94;5024227;28;20060;-66
2023/10/22 05:05:12;;;;;;;11.80;7.20;;;;;;;-145.18;100.00;46640.88;5024357;28;20101;-66
2023/10/22 05:07:38;;;;;;;14.83;7.37;;;;;;;-145.18;100.00;46640.88;5028832;28;20535;-66
2023/10/22 05:10:04;;;;;;;13.00;7.43;;;;;;;-145.18;100.00;46638.91;5009831;28;20025;-66
2023/10/22 05:12:29;;;;;;;18.33;8.17;;;;;;;-145.18;100.00;46633.06;5028101;28;20080;-66
2023/10/22 05:14:55;;;;;;;15.27;7.53;;;;;;;-145.18;100.00;46638.91;5025009;28;20022;-66
2023/10/22 05:17:20;;;;;;;13.07;7.00;;;;;;;-145.18;100.00;46635.00;5031601;28;20022;-66
2023/10/22 05:19:49;;;;;;;12.57;7.53;;;;;;;-145.18;100.00;46638.91;5026652;28;20079;-66
2023/10/22 05:22:14;;;;;;;13.37;7.47;;;;;;;-145.18;100.00;46642.81;5032249;28;20025;-66
2023/10/22 05:24:40;;;;;;;15.23;8.17;;;;;;;-145.18;100.00;46642.81;5024421;28;20033;-66
2023/10/22 05:27:05;;;;;;;16.00;6.67;;;;;;;-145.18;100.00;46638.91;5025095;28;20080;-66
2023/10/22 05:29:31;;;;;;;13.40;6.37;;;;;;;-145.18;100.00;46638.91;5030678;28;20025;-66
2023/10/22 05:31:57;;;;;;;15.20;7.30;;;;;;;-145.18;100.00;46640.88;5028248;28;20044;-66
2023/10/22 05:34:22;;;;;;;12.20;6.93;;;;;;;-145.18;100.00;46642.81;5019680;28;20033;-66
2023/10/22 05:36:47;;;;;;;12.33;5.63;;;;;;;-145.18;100.00;46642.81;5034584;28;20516;-66
2023/10/22 05:39:13;;;;;;;14.00;7.47;;;;;;;-145.18;100.00;46644.78;5026419;28;20529;-66
2023/10/22 05:41:39;;;;;;;10.77;6.10;;;;;;;-145.18;100.00;46644.78;5027856;28;20056;-66
2023/10/22 05:44:04;;;;;;;14.07;5.93;;;;;;;-145.18;100.00;46644.78;5016226;28;20037;-67
2023/10/22 05:46:33;;;;;;;9.17;5.80;;;;;;;-145.18;100.00;46644.78;5030920;28;20339;-68
2023/10/22 05:49:00;;;;;;;13.50;6.10;;;;;;;-145.18;100.00;46646.72;5023032;28;20032;-67
2023/10/22 05:51:25;;;;;;;13.23;5.77;;;;;;;-145.18;100.00;46646.72;5028351;28;20490;-67
2023/10/22 05:53:51;;;;;;;12.87;5.47;;;;;;;-145.18;100.00;46644.78;5023493;28;20033;-67
2023/10/22 05:56:16;;;;;;;8.30;5.40;;;;;;;-145.18;100.00;46644.78;5024828;28;20033;-67
2023/10/22 05:58:43;;;;;;;14.23;5.00;;;;;;;-145.18;100.00;46646.72;5028462;28;20060;-67
2023/10/22 06:01:09;;;;;;;10.90;6.07;;;;;;;-145.18;100.00;46646.72;5019276;28;20447;-67
2023/10/22 06:03:35;;;;;;;12.90;5.13;;;;;;;-145.18;100.00;46644.78;5024236;28;20512;-67
2023/10/22 06:06:01;;;;;;;17.97;5.70;;;;;;;-145.18;100.00;46648.69;5030040;28;20033;-67
2023/10/22 06:08:26;;;;;;;9.73;4.60;;;;;;;-145.18;100.00;46654.53;5025503;28;20025;-67
2023/10/22 06:10:52;;;;;;;11.00;4.33;;;;;;;-145.18;100.00;46652.59;5029501;28;20036;-68
2023/10/22 06:13:17;;;;;;;11.90;4.80;;;;;;;-145.18;100.00;46650.63;5024502;28;20064;-68
2023/10/22 06:15:45;;;;;;;8.23;4.10;;;;;;;-145.18;100.00;46652.59;5017201;28;20084;-67
2023/10/22 06:18:10;;;;;;;9.90;4.30;;;;;;;-145.18;100.00;46652.59;5026638;28;20416;-67
2023/10/22 06:20:37;;;;;;;11.33;3.93;;;;;;;-145.18;100.00;46656.50;5025004;28;20037;-67
2023/10/22 06:23:04;;;;;;;9.63;4.23;;;;;;;-145.18;100.00;46654.53;5026166;28;20120;-68
2023/10/22 06:25:31;;;;;;;6.03;3.70;;;;;;;-145.18;100.00;46654.53;5026214;28;20029;-68
2023/10/22 06:27:57;;;;;;;7.57;3.80;;;;;;;-145.18;100.00;46656.50;5020848;28;20058;-67
2023/10/22 06:30:24;;;;;;;10.93;3.73;;;;;;;-145.18;100.00;46656.50;5021052;28;20064;-68
2023/10/22 06:32:54;;;;;;;11.90;3.80;;;;;;;-145.18;100.00;46654.53;5026308;28;20460;-68
2023/10/22 06:35:19;;;;;;;9.70;4.00;;;;;;;-145.18;100.00;46654.53;5025312;28;20078;-67
2023/10/22 06:37:47;;;;;;;8.63;3.90;;;;;;;-145.18;100.00;46652.59;5025395;28;20464;-68
2023/10/22 06:40:13;;;;;;;10.30;3.97;;;;;;;-145.18;100.00;46652.59;5034915;28;20034;-68
2023/10/22 06:42:40;;;;;;;8.23;3.73;;;;;;;-145.18;100.00;46648.69;5031935;28;20080;-67
2023/10/22 06:45:07;;;;;;;9.13;3.77;;;;;;;-145.18;100.00;46658.44;5026244;28;20025;-67
2023/10/22 06:47:39;;;;;;;12.40;3.83;;;;;;;-145.18;100.00;46658.44;5034133;28;20026;-68
2023/10/22 06:50:09;;;;;;;7.57;4.30;;;;;;;-145.18;100.00;46648.69;5039411;28;20117;-67
2023/10/22 06:52:35;;;;;;;7.03;3.23;;;;;;;-145.18;100.00;46652.59;5020754;28;20026;-67
2023/10/22 06:55:02;;;;;;;6.13;3.57;;;;;;;-145.18;100.00;46660.41;5027106;28;20029;-67
2023/10/22 06:57:27;;;;;;;7.87;3.57;;;;;;;-145.18;100.00;46656.50;5032696;28;20024;-67
2023/10/22 06:59:56;;;;;;;9.90;4.20;;;;;;;-145.18;100.00;46652.59;5025768;28;20029;-66
2023/10/22 07:02:25;;;;;;;11.10;4.07;;;;;;;-145.18;100.00;46650.63;5036768;28;20728;-67
2023/10/22 07:04:55;;;;;;;9.03;3.90;;;;;;;-145.18;100.00;46652.59;5033086;28;20059;-67
2023/10/22 07:07:21;;;;;;;8.33;4.10;;;;;;;-145.18;100.00;46650.63;5025543;28;20029;-67
2023/10/22 07:09:47;;;;;;;7.53;4.00;;;;;;;-145.18;100.00;46652.59;5029594;28;20533;-67
2023/10/22 07:12:12;;;;;;;10.33;4.60;;;;;;;-145.18;100.00;46650.63;5029070;28;20034;-67
2023/10/22 07:14:38;;;;;;;8.43;4.10;;;;;;;-145.18;100.00;46654.53;5029076;28;20036;-67
2023/10/22 07:17:04;;;;;;;8.33;3.93;;;;;;;-145.18;100.00;46650.63;5024674;28;20041;-67
2023/10/22 07:19:29;;;;;;;10.20;4.27;;;;;;;-145.18;100.00;46652.59;5024871;28;20440;-67
2023/10/22 07:21:55;;;;;;;8.10;4.17;;;;;;;-145.18;100.00;46650.63;5024186;28;20053;-67
2023/10/22 07:24:20;;;;;;;9.30;4.43;;;;;;;-145.18;100.00;46648.69;5026112;28;20030;-67
2023/10/22 07:26:45;;;;;;;6.53;4.20;;;;;;;-145.18;100.00;46652.59;5020087;28;20026;-67
2023/10/22 07:29:12;;;;;;;7.53;3.53;;;;;;;-145.18;100.00;46652.59;5026073;28;20482;-67
2023/10/22 07:31:38;;;;;;;3.70;3.00;;;;;;;-145.18;100.00;46644.78;5025511;28;20531;-67
2023/10/22 07:34:03;;;;;;;15.43;3.43;;;;;;;-145.18;100.00;46652.59;5030411;28;20118;-67
2023/10/22 07:36:28;;;;;;;7.60;3.60;;;;;;;-145.18;100.00;46646.72;5025067;28;20099;-67
2023/10/22 07:38:54;;;;;;;9.30;3.83;;;;;;;-145.18;100.00;46648.69;5039089;28;20084;-67
2023/10/22 07:41:19;;;;;;;6.13;3.63;;;;;;;-145.18;100.00;46648.69;5037931;28;20498;-67
2023/10/22 07:43:45;;;;;;;9.57;3.60;;;;;;;-145.18;100.00;46648.69;5039570;28;20060;-68
2023/10/22 07:46:14;;;;;;;7.67;3.43;;;;;;;-145.18;100.00;46650.63;5038021;28;20033;-67
2023/10/22 07:48:40;;;;;;;9.87;3.30;;;;;;;-145.18;100.00;46650.63;5036882;28;20024;-67
2023/10/22 07:51:17;;;;;;;6.43;2.70;;;;;;;-145.18;100.00;46650.63;5036579;28;20021;-67
2023/10/22 07:53:43;;;;;;;7.13;3.30;;;;;;;-145.18;100.00;46652.59;5038448;28;20064;-67
2023/10/22 07:56:10;;;;;;;5.50;2.70;;;;;;;-145.18;100.00;46648.69;5037925;28;20107;-67
2023/10/22 07:58:37;;;;;;;11.27;3.40;;;;;;;-145.18;100.00;46648.69;5036322;28;20486;-67
2023/10/22 08:01:03;;;;;;;6.10;3.57;;;;;;;-145.18;100.00;46648.69;5037678;28;20106;-67
2023/10/22 08:03:29;;;;;;;6.77;3.10;;;;;;;-145.18;100.00;46652.59;5037671;28;20389;-67
2023/10/22 08:05:59;;;;;;;5.93;3.20;;;;;;;-145.18;100.00;46648.69;5038957;28;20392;-67
2023/10/22 08:08:25;;;;;;;8.70;3.47;;;;;;;-145.18;100.00;46648.69;5037913;28;20026;-67
2023/10/22 08:10:50;;;;;;;9.37;3.03;;;;;;;-145.18;100.00;46648.69;5039549;28;20068;-67
2023/10/22 08:13:17;;;;;;;11.17;3.50;;;;;;;-145.18;100.00;46644.78;5035452;28;20110;-67
2023/10/22 08:15:43;;;;;;;11.73;2.60;;;;;;;-145.18;100.00;46650.63;5038311;28;20033;-67
2023/10/22 08:18:09;;;;;;;10.00;2.80;;;;;;;-145.18;100.00;46650.63;5037701;28;20041;-67
2023/10/22 08:20:37;;;;;;;3.40;2.27;;;;;;;-145.18;100.00;46640.88;5036634;28;20498;-67
2023/10/22 08:23:03;;;;;;;6.37;2.57;;;;;;;-145.18;100.00;46644.78;5036183;28;20414;-67
2023/10/22 08:25:28;;;;;;;12.47;3.67;;;;;;;-145.18;100.00;46648.69;5036195;28;20028;-67
2023/10/22 08:27:55;;;;;;;6.53;2.50;;;;;;;-145.18;100.00;46646.72;5036188;28;20139;-67
2023/10/22 08:30:20;;;;;;;10.73;3.10;;;;;;;-145.18;100.00;46642.81;5037168;28;20025;-67
2023/10/22 08:32:48;;;;;;;7.13;3.07;;;;;;;-145.18;100.00;46648.69;5036482;28;20044;-67
2023/10/22 08:35:14;;;;;;;7.33;2.57;;;;;;;-145.18;100.00;46648.69;5037553;28;20079;-67
2023/10/22 08:37:41;;;;;;;8.33;2.87;;;;;;;-145.18;100.00;46652.59;5038058;28;20045;-67
2023/10/22 08:40:08;;;;;;;8.97;3.30;;;;;;;-145.18;100.00;46648.69;5018755;28;20493;-67
2023/10/22 08:42:37;;;;;;;8.80;2.80;;;;;;;-145.18;100.00;46648.69;5028622;28;20037;-67
2023/10/22 08:45:04;;;;;;;4.30;2.57;;;;;;;-145.18;100.00;46650.63;5029661;28;20061;-67
2023/10/22 08:47:30;;;;;;;8.73;3.87;;;;;;;-145.18;100.00;46654.53;5030460;28;20497;-67
2023/10/22 08:49:56;;;;;;;7.53;2.60;;;;;;;-145.18;100.00;46652.59;5028573;28;20124;-67
2023/10/22 08:52:22;;;;;;;5.40;2.77;;;;;;;-145.18;100.00;46652.59;5026605;28;20113;-67
2023/10/22 08:54:48;;;;;;;7.67;2.90;;;;;;;-145.18;100.00;46648.69;5025279;28;20116;-67
2023/10/22 08:57:19;;;;;;;6.27;2.83;;;;;;;-145.18;100.00;46652.59;5029445;28;20059;-67
2023/10/22 08:59:45;;;;;;;7.97;2.73;;;;;;;-145.18;100.00;46652.59;5027030;28;20481;-67
2023/10/22 09:02:11;;;;;;;5.53;2.67;;;;;;;-145.18;100.00;46650.63;5025404;28;20054;-67
2023/10/22 09:04:38;;;;;;;9.13;3.20;;;;;;;-145.18;100.00;46650.63;5026152;28;20485;-67
2023/10/22 09:07:04;;;;;;;6.47;3.00;;;;;;;-145.18;100.00;46652.59;5028928;28;20112;-67
2023/10/22 09:09:33;;;;;;;10.70;3.00;;;;;;;-145.18;100.00;46656.50;5021066;28;20463;-67
2023/10/22 09:11:59;;;;;;;9.20;2.70;;;;;;;-145.18;100.00;46652.59;5027939;28;20036;-67
2023/10/22 09:14:25;;;;;;;7.00;3.10;;;;;;;-145.18;100.00;46650.63;5028324;28;20029;-68
2023/10/22 09:16:51;;;;;;;6.83;2.57;;;;;;;-145.18;100.00;46654.53;5030349;28;20033;-67
2023/10/22 09:19:39;;;;;;;11.83;2.90;;;;;;;-145.18;100.00;46658.44;5028747;28;20382;-67
2023/10/22 09:22:05;;;;;;;5.97;3.10;;;;;;;-145.18;100.00;46658.44;5031583;28;20063;-67
2023/10/22 09:24:48;;;;;;;7.60;2.27;;;;;;;-145.18;100.00;46658.44;5018606;28;20497;-67
2023/10/22 09:27:34;;;;;;;11.47;2.33;;;;;;;-145.18;100.00;46664.31;5025814;28;20029;-68
2023/10/22 09:30:00;;;;;;;6.03;2.53;;;;;;;-145.18;100.00;46668.22;5021111;28;20095;-67
2023/10/22 09:32:26;;;;;;;7.87;2.63;;;;;;;-145.18;100.00;46664.31;5016842;28;20042;-67
2023/10/22 09:34:52;;;;;;;10.13;2.37;;;;;;;-145.18;100.00;46670.16;5020432;28;20030;-68
2023/10/22 09:37:17;;;;;;;5.50;2.77;;;;;;;-145.18;100.00;46664.31;5032535;28;20456;-67
2023/10/22 09:39:44;;;;;;;7.17;2.80;;;;;;;-145.18;100.00;46670.16;5027656;28;20511;-68
2023/10/22 09:42:14;;;;;;;3.93;2.57;;;;;;;-145.18;100.00;46668.22;5029370;28;20402;-68
2023/10/22 09:44:41;;;;;;;7.87;2.80;;;;;;;-145.18;100.00;46670.16;5023110;28;20033;-67
2023/10/22 09:47:07;;;;;;;8.03;2.90;;;;;;;-145.18;100.00;46668.22;5022965;28;20432;-68
2023/10/22 09:49:35;;;;;;;5.63;2.43;;;;;;;-145.18;100.00;46672.13;5016788;28;20057;-68
2023/10/22 09:52:03;;;;;;;12.43;2.97;;;;;;;-145.18;100.00;46674.06;5022642;28;20052;-68
2023/10/22 09:54:39;;;;;;;6.73;2.90;;;;;;;-145.18;100.00;46676.03;5023861;28;20398;-68
2023/10/22 09:57:13;;;;;;;3.60;2.67;;;;;;;-145.18;100.00;46672.13;5023476;28;20032;-68
2023/10/22 09:59:40;;;;;;;4.47;2.60;;;;;;;-145.18;100.00;46677.97;5019271;28;20037;-68
2023/10/22 10:02:07;;;;;;;5.03;2.30;;;;;;;-145.18;100.00;46681.88;5030428;28;20049;-68
2023/10/22 10:04:34;;;;;;;4.43;2.13;;;;;;;-145.18;100.00;46679.94;5034791;28;20496;-68
2023/10/22 10:07:02;;;;;;;9.47;2.50;;;;;;;-145.18;100.00;46677.97;5029106;28;20033;-68
2023/10/22 10:09:28;;;;;;;9.70;2.00;;;;;;;-145.18;100.00;46681.88;5024744;28;20025;-68
2023/10/22 10:11:56;;;;;;;2.90;1.63;;;;;;;-145.18;100.00;46685.78;5027850;28;20121;-68
2023/10/22 10:14:36;;;;;;;5.27;1.73;;;;;;;-145.18;100.00;46687.75;5031875;28;20029;-68
2023/10/22 10:17:02;;;;;;;3.70;1.80;;;;;;;-145.18;100.00;46687.75;5033141;28;20087;-68
2023/10/22 10:19:28;;;;;;;4.90;1.93;;;;;;;-145.18;100.00;46685.78;5031477;28;20546;-68
2023/10/22 10:21:54;;;;;;;7.73;2.17;;;;;;;-145.18;100.00;46691.66;5032119;28;20141;-68
2023/10/22 10:24:25;;;;;;;5.17;1.50;;;;;;;-145.18;100.00;46689.69;5033083;28;20379;-68
2023/10/22 10:26:57;;;;;;;8.97;1.73;;;;;;;-145.18;100.00;46689.69;5033502;28;20159;-68
2023/10/22 10:29:25;;;;;;;3.37;1.53;;;;;;;-145.18;100.00;46691.66;5029736;28;20496;-68
2023/10/22 10:31:55;;;;;;;2.57;1.60;;;;;;;-145.18;100.00;46689.69;5030888;28;20025;-68
2023/10/22 10:34:27;;;;;;;2.93;1.40;;;;;;;-145.18;100.00;46695.56;5030862;28;20033;-68
2023/10/22 10:36:53;;;;;;;4.53;1.10;;;;;;;-145.18;100.00;46693.59;5026747;28;20405;-68
2023/10/22 10:39:46;;;;;;;3.60;1.57;;;;;;;-145.18;100.00;46697.50;5032503;28;20055;-68
2023/10/22 10:42:13;;;;;;;3.43;1.30;;;;;;;-145.18;100.00;46699.47;5022120;28;20029;-68
2023/10/22 10:45:02;;;;;;;1.60;1.07;;;;;;;-145.18;100.00;46699.47;5015342;28;20144;-68
2023/10/22 10:47:39;;;;;;;3.07;1.00;;;;;;;-145.18;100.00;46705.31;5023311;28;20028;-68
2023/10/22 10:50:06;;;;;;;4.67;1.17;;;;;;;-145.18;100.00;46707.28;5025509;28;20032;-68
2023/10/22 10:52:56;;;;;;;5.27;1.23;;;;;;;-145.18;100.00;46709.22;5031666;28;20079;-68
2023/10/22 10:55:21;;;;;;;2.47;1.20;;;;;;;-145.18;100.00;46703.38;5021471;28;20025;-69
2023/10/22 10:57:49;;;;;;;1.63;0.90;;;;;;;-145.18;100.00;46705.31;5044526;28;20033;-68
2023/10/22 11:00:19;;;;;;;4.87;1.33;;;;;;;-145.18;100.00;46705.31;5024285;28;20025;-68
2023/10/22 11:02:49;;;;;;;4.63;1.33;;;;;;;-145.18;100.00;46709.22;5032110;28;20425;-68
2023/10/22 11:05:15;;;;;;;3.83;1.10;;;;;;;-145.18;100.00;46707.28;5030752;28;20036;-68